createdAt,value
2022-11-03T00:02:03.368Z,9.50
2022-11-03T00:04:30.311Z,9.40
2022-11-03T00:06:57.525Z,9.30
2022-11-03T00:09:24.633Z,9.30
2022-11-03T00:11:52.114Z,9.30
2022-11-03T00:14:19.852Z,9.30
2022-11-03T00:16:47.161Z,9.40
2022-11-03T00:19:16.423Z,9.30
2022-11-03T00:21:44.053Z,9.30
2022-11-03T00:24:11.207Z,9.20
2022-11-03T00:26:38.577Z,9.20
2022-11-03T00:29:13.560Z,9.30
2022-11-03T00:31:42.935Z,9.10
2022-11-03T00:34:10.642Z,9.10
2022-11-03T00:36:40.157Z,9.10
2022-11-03T00:39:07.965Z,9.00
2022-11-03T00:41:35.275Z,8.90
2022-11-03T00:44:02.440Z,9.00
2022-11-03T00:46:30.790Z,8.90
2022-11-03T00:48:57.785Z,8.90
2022-11-03T00:51:27.792Z,8.90
2022-11-03T00:53:59.830Z,8.90
2022-11-03T00:56:34.164Z,8.90
2022-11-03T00:59:06.462Z,8.90
2022-11-03T01:01:47.217Z,8.90
2022-11-03T01:04:35.376Z,8.90
2022-11-03T01:07:06.076Z,8.80
2022-11-03T01:09:41.497Z,8.80
2022-11-03T01:12:21.468Z,8.80
2022-11-03T01:14:53.376Z,8.80
2022-11-03T01:17:24.901Z,8.80
2022-11-03T01:19:53.516Z,8.70
2022-11-03T01:22:25.954Z,8.70
2022-11-03T01:24:55.837Z,8.70
2022-11-03T01:27:23.553Z,8.70
2022-11-03T01:29:50.647Z,8.70
2022-11-03T01:32:17.529Z,8.70
2022-11-03T01:34:44.479Z,8.70
2022-11-03T01:37:11.676Z,8.70
2022-11-03T01:39:41.426Z,8.60
2022-11-03T01:42:14.609Z,8.70
2022-11-03T01:44:50.829Z,8.60
2022-11-03T01:47:20.620Z,8.60
2022-11-03T01:49:53.706Z,8.60
2022-11-03T01:52:28.079Z,8.50
2022-11-03T01:55:12.757Z,8.50
2022-11-03T01:57:54.106Z,8.50
2022-11-03T02:00:22.008Z,8.50
2022-11-03T02:02:49.969Z,8.50
2022-11-03T02:05:17.917Z,8.50
2022-11-03T02:07:50.323Z,8.50
2022-11-03T02:10:18.668Z,8.40
2022-11-03T02:12:45.726Z,8.60
2022-11-03T02:15:16.050Z,8.50
2022-11-03T02:17:44.175Z,8.50
2022-11-03T02:20:16.473Z,8.30
2022-11-03T02:23:08.844Z,8.30
2022-11-03T02:25:48.278Z,8.30
2022-11-03T02:28:22.283Z,8.30
2022-11-03T02:31:04.490Z,8.20
2022-11-03T02:33:59.879Z,8.30
2022-11-03T02:36:53.948Z,8.20
2022-11-03T02:39:34.944Z,8.20
2022-11-03T02:42:04.707Z,8.20
2022-11-03T02:44:33.558Z,8.20
2022-11-03T02:47:03.614Z,8.10
2022-11-03T02:49:30.506Z,8.10
2022-11-03T02:52:05.102Z,8.10
2022-11-03T02:54:44.523Z,8.10
2022-11-03T02:57:21.150Z,8.10
2022-11-03T03:00:05.904Z,8.00
2022-11-03T03:03:00.600Z,8.00
2022-11-03T03:05:33.761Z,8.00
2022-11-03T03:08:07.650Z,7.90
2022-11-03T03:10:39.710Z,7.90
2022-11-03T03:13:09.065Z,7.80
2022-11-03T03:15:53.704Z,7.80
2022-11-03T03:18:29.584Z,7.80
2022-11-03T03:21:25.830Z,7.80
2022-11-03T03:24:02.632Z,7.80
2022-11-03T03:26:41.358Z,7.90
2022-11-03T03:29:17.270Z,7.80
2022-11-03T03:31:50.151Z,7.90
2022-11-03T03:34:36.504Z,7.90
2022-11-03T03:37:06.236Z,7.90
2022-11-03T03:39:36.679Z,7.90
2022-11-03T03:42:05.098Z,8.00
2022-11-03T03:44:34.301Z,8.00
2022-11-03T03:47:09.581Z,8.00
2022-11-03T03:49:36.523Z,8.10
2022-11-03T03:52:04.055Z,8.10
2022-11-03T03:54:31.110Z,8.20
2022-11-03T03:57:06.946Z,8.20
2022-11-03T03:59:33.959Z,8.20
2022-11-03T04:02:01.139Z,8.20
2022-11-03T04:04:28.276Z,8.20
2022-11-03T04:07:15.213Z,8.20
2022-11-03T04:09:42.300Z,8.10
2022-11-03T04:12:28.760Z,8.10
2022-11-03T04:15:14.536Z,8.10
2022-11-03T04:18:04.455Z,8.10
2022-11-03T04:20:50.814Z,8.10
2022-11-03T04:23:18.293Z,8.00
2022-11-03T04:25:53.523Z,8.00
2022-11-03T04:28:21.042Z,8.10
2022-11-03T04:30:52.234Z,8.00
2022-11-03T04:33:22.406Z,8.00
2022-11-03T04:35:50.117Z,8.10
2022-11-03T04:38:16.972Z,8.10
2022-11-03T04:40:55.516Z,8.10
2022-11-03T04:43:29.467Z,8.10
2022-11-03T04:45:56.445Z,8.00
2022-11-03T04:48:24.953Z,8.00
2022-11-03T04:50:58.289Z,8.00
2022-11-03T04:53:30.713Z,8.00
2022-11-03T04:55:59.541Z,7.90
2022-11-03T04:58:34.615Z,7.90
2022-11-03T05:01:03.639Z,7.90
2022-11-03T05:03:34.227Z,7.80
2022-11-03T05:06:14.348Z,7.80
2022-11-03T05:08:43.002Z,7.80
2022-11-03T05:11:19.090Z,7.80
2022-11-03T05:13:48.224Z,7.70
2022-11-03T05:16:15.995Z,7.70
2022-11-03T05:18:47.331Z,7.60
2022-11-03T05:21:17.757Z,7.60
2022-11-03T05:23:58.065Z,7.60
2022-11-03T05:26:34.630Z,7.60
2022-11-03T05:29:26.974Z,7.50
2022-11-03T05:31:54.758Z,7.50
2022-11-03T05:34:30.836Z,7.50
2022-11-03T05:37:06.793Z,7.40
2022-11-03T05:39:40.814Z,7.40
2022-11-03T05:42:41.993Z,7.40
2022-11-03T05:45:21.079Z,7.40
2022-11-03T05:47:51.642Z,7.40
2022-11-03T05:50:25.253Z,7.40
2022-11-03T05:52:58.065Z,7.40
2022-11-03T05:55:31.685Z,7.40
2022-11-03T05:58:07.064Z,7.30
2022-11-03T06:00:45.449Z,7.30
2022-11-03T06:03:25.692Z,7.30
2022-11-03T06:05:53.805Z,7.20
2022-11-03T06:10:53.369Z,7.30
2022-11-03T06:13:30.296Z,7.30
2022-11-03T06:16:27.449Z,7.20
2022-11-03T06:18:54.549Z,7.20
2022-11-03T06:21:24.768Z,7.20
2022-11-03T06:23:55.676Z,7.20
2022-11-03T06:26:28.605Z,7.20
2022-11-03T06:28:55.962Z,7.20
2022-11-03T06:31:31.602Z,7.10
2022-11-03T06:33:59.145Z,7.10
2022-11-03T06:36:35.604Z,7.10
2022-11-03T06:39:09.740Z,7.10
2022-11-03T06:41:37.522Z,7.10
2022-11-03T06:44:24.923Z,7.20
2022-11-03T06:46:57.003Z,7.20
2022-11-03T06:49:33.407Z,7.20
2022-11-03T06:52:16.160Z,7.20
2022-11-03T06:54:43.071Z,7.20
2022-11-03T06:57:16.715Z,7.20
2022-11-03T06:59:43.858Z,7.20
2022-11-03T07:02:50.754Z,7.20
2022-11-03T07:05:27.719Z,7.20
2022-11-03T07:08:00.446Z,7.20
2022-11-03T07:10:31.285Z,7.30
2022-11-03T07:13:10.064Z,7.30
2022-11-03T07:15:39.779Z,7.30
2022-11-03T07:18:27.656Z,7.30
2022-11-03T07:20:55.816Z,7.30
2022-11-03T07:23:30.544Z,7.30
2022-11-03T07:26:00.524Z,7.30
2022-11-03T07:28:37.431Z,7.40
2022-11-03T07:31:16.553Z,7.40
2022-11-03T07:33:44.139Z,7.50
2022-11-03T07:36:17.206Z,7.40
2022-11-03T07:38:47.724Z,7.50
2022-11-03T07:41:32.847Z,7.50
2022-11-03T07:44:03.308Z,7.50
2022-11-03T07:46:30.872Z,7.50
2022-11-03T07:48:59.670Z,7.60
2022-11-03T07:51:30.221Z,7.60
2022-11-03T07:54:17.587Z,7.60
2022-11-03T07:57:22.964Z,7.60
2022-11-03T07:59:52.663Z,7.60
2022-11-03T08:02:53.867Z,7.70
2022-11-03T08:05:20.911Z,7.70
2022-11-03T08:07:48.095Z,7.70
2022-11-03T08:10:15.209Z,7.70
2022-11-03T08:12:42.152Z,7.70
2022-11-03T08:15:09.632Z,7.80
2022-11-03T08:17:36.514Z,7.80
2022-11-03T08:20:03.522Z,7.90
2022-11-03T08:22:31.224Z,8.00
2022-11-03T08:24:58.088Z,8.00
2022-11-03T08:27:25.018Z,8.00
2022-11-03T08:29:52.061Z,8.00
2022-11-03T08:32:19.404Z,8.10
2022-11-03T08:34:46.292Z,8.10
2022-11-03T08:37:13.485Z,8.20
2022-11-03T08:39:41.536Z,8.20
2022-11-03T08:42:11.560Z,8.20
2022-11-03T08:44:38.604Z,8.20
2022-11-03T08:47:05.652Z,8.30
2022-11-03T08:49:32.559Z,8.30
2022-11-03T08:52:00.531Z,8.40
2022-11-03T08:54:27.678Z,8.50
2022-11-03T08:56:55.290Z,8.60
2022-11-03T08:59:22.489Z,8.60
2022-11-03T09:01:49.588Z,8.60
2022-11-03T09:04:16.567Z,8.70
2022-11-03T09:06:43.536Z,8.80
2022-11-03T09:11:57.488Z,8.80
2022-11-03T09:14:24.369Z,8.90
2022-11-03T09:16:51.559Z,8.90
2022-11-03T09:19:18.657Z,8.90
2022-11-03T09:21:45.608Z,8.90
2022-11-03T09:24:12.649Z,8.90
2022-11-03T09:26:40.051Z,8.90
2022-11-03T09:29:08.245Z,8.90
2022-11-03T09:31:40.416Z,8.90
2022-11-03T09:34:10.130Z,8.90
2022-11-03T09:36:37.188Z,8.90
2022-11-03T09:39:04.178Z,8.90
2022-11-03T09:41:53.734Z,9.00
2022-11-03T09:44:19.537Z,9.00
2022-11-03T09:46:48.442Z,9.00
2022-11-03T09:49:16.425Z,9.00
2022-11-03T09:51:43.815Z,9.00
2022-11-03T09:54:16.600Z,9.10
2022-11-03T09:56:44.630Z,9.20
2022-11-03T09:59:20.877Z,9.20
2022-11-03T10:01:51.324Z,9.30
2022-11-03T10:04:33.801Z,9.30
2022-11-03T10:07:03.815Z,9.50
2022-11-03T10:09:31.030Z,9.50
2022-11-03T10:11:58.919Z,9.50
2022-11-03T10:14:30.137Z,9.50
2022-11-03T10:17:02.487Z,9.50
2022-11-03T10:19:32.308Z,9.60
2022-11-03T10:22:01.491Z,9.60
2022-11-03T10:24:28.648Z,9.70
2022-11-03T10:26:56.104Z,9.80
2022-11-03T10:29:28.157Z,9.80
2022-11-03T10:31:58.531Z,9.90
2022-11-03T10:34:34.510Z,10.00
2022-11-03T10:37:17.393Z,10.00
2022-11-03T10:39:46.046Z,10.00
2022-11-03T10:42:19.679Z,10.10
2022-11-03T10:44:47.604Z,10.10
2022-11-03T10:47:25.224Z,10.10
2022-11-03T10:49:55.276Z,10.10
2022-11-03T10:52:28.157Z,10.10
2022-11-03T10:54:58.022Z,10.20
2022-11-03T10:57:29.008Z,10.30
2022-11-03T10:59:58.302Z,10.20
2022-11-03T11:02:31.627Z,10.30
2022-11-03T11:05:02.114Z,10.30
2022-11-03T11:07:39.170Z,10.30
2022-11-03T11:10:12.045Z,10.30
2022-11-03T11:12:39.737Z,10.30
2022-11-03T11:15:39.623Z,10.30
2022-11-03T11:18:09.797Z,10.40
2022-11-03T11:20:42.143Z,10.30
2022-11-03T11:23:27.705Z,10.30
2022-11-03T11:26:30.119Z,10.40
2022-11-03T11:29:36.292Z,10.40
2022-11-03T11:32:41.703Z,10.30
2022-11-03T11:35:29.921Z,10.30
2022-11-03T11:37:57.277Z,10.30
2022-11-03T11:40:24.665Z,10.40
2022-11-03T11:43:06.968Z,10.40
2022-11-03T11:46:12.744Z,10.50
2022-11-03T11:48:40.508Z,10.50
2022-11-03T11:51:09.763Z,10.60
2022-11-03T11:53:42.234Z,10.50
2022-11-03T11:56:16.622Z,10.40
2022-11-03T11:58:55.782Z,10.50
2022-11-03T12:01:33.669Z,10.50
2022-11-03T12:09:18.965Z,10.50
2022-11-03T12:11:55.695Z,10.50
2022-11-03T12:14:29.911Z,10.60
2022-11-03T12:17:22.169Z,10.60
2022-11-03T12:19:53.582Z,10.60
2022-11-03T12:22:27.018Z,10.60
2022-11-03T12:24:58.436Z,10.60
2022-11-03T12:27:25.679Z,10.70
2022-11-03T12:29:54.295Z,10.70
2022-11-03T12:32:37.134Z,10.80
2022-11-03T12:35:08.711Z,10.70
2022-11-03T12:37:36.530Z,10.70
2022-11-03T12:40:03.852Z,10.60
2022-11-03T12:42:30.935Z,10.70
2022-11-03T12:44:58.097Z,10.70
2022-11-03T12:47:25.561Z,10.70
2022-11-03T12:49:53.920Z,10.70
2022-11-03T12:52:24.464Z,10.70
2022-11-03T12:54:51.448Z,10.60
2022-11-03T12:57:18.362Z,10.60
2022-11-03T12:59:46.093Z,10.60
2022-11-03T13:02:13.178Z,10.50
2022-11-03T13:04:40.444Z,10.50
2022-11-03T13:07:07.686Z,10.40
2022-11-03T13:09:36.239Z,10.40
2022-11-03T13:12:22.418Z,10.40
2022-11-03T13:14:49.903Z,10.40
2022-11-03T13:17:17.059Z,10.40
2022-11-03T13:19:44.904Z,10.30
2022-11-03T13:22:11.980Z,10.40
2022-11-03T13:24:38.901Z,10.40
2022-11-03T13:27:06.041Z,10.40
2022-11-03T13:29:36.581Z,10.40
2022-11-03T13:32:04.693Z,10.40
2022-11-03T13:34:34.046Z,10.30
2022-11-03T13:37:00.982Z,10.30
2022-11-03T13:39:28.288Z,10.30
2022-11-03T13:41:55.274Z,10.30
2022-11-03T13:44:22.291Z,10.30
2022-11-03T13:46:49.688Z,10.20
2022-11-03T13:52:04.783Z,10.30
2022-11-03T14:00:09.335Z,10.20
2022-11-03T14:05:23.970Z,10.20
2022-11-03T14:07:51.227Z,10.10
2022-11-03T14:10:18.461Z,10.10
2022-11-03T14:12:45.563Z,10.10
2022-11-03T14:15:13.479Z,10.10
2022-11-03T14:17:40.784Z,10.00
2022-11-03T14:20:11.097Z,10.10
2022-11-03T14:22:38.896Z,10.10
2022-11-03T14:25:10.349Z,10.10
2022-11-03T14:27:37.463Z,10.10
2022-11-03T14:30:05.253Z,10.10
2022-11-03T14:32:32.217Z,10.00
2022-11-03T14:34:59.258Z,10.00
2022-11-03T14:37:26.875Z,10.00
2022-11-03T14:39:54.260Z,9.90
2022-11-03T14:42:21.926Z,9.90
2022-11-03T14:44:48.995Z,9.90
2022-11-03T14:47:18.372Z,9.90
2022-11-03T14:49:46.716Z,9.80
2022-11-03T14:52:15.352Z,9.80
2022-11-03T14:54:43.309Z,9.80
2022-11-03T14:57:10.514Z,9.80
2022-11-03T14:59:37.504Z,9.80
2022-11-03T15:02:04.965Z,9.70
2022-11-03T15:04:33.058Z,9.70
2022-11-03T15:07:00.018Z,9.70
2022-11-03T15:09:27.082Z,9.60
2022-11-03T15:11:54.033Z,9.70
2022-11-03T15:14:21.415Z,9.70
2022-11-03T15:16:48.531Z,9.60
2022-11-03T15:19:17.411Z,9.60
2022-11-03T15:21:44.476Z,9.50
2022-11-03T15:26:58.761Z,9.50
2022-11-03T15:29:26.377Z,9.50
2022-11-03T15:31:54.138Z,9.40
2022-11-03T15:34:22.352Z,9.40
2022-11-03T15:36:50.695Z,9.40
2022-11-03T15:39:17.975Z,9.30
2022-11-03T15:41:45.029Z,9.30
2022-11-03T15:44:11.930Z,9.30
2022-11-03T15:46:40.343Z,9.20
2022-11-03T15:49:07.637Z,9.20
2022-11-03T15:51:34.659Z,9.20
2022-11-03T15:54:02.536Z,9.10
2022-11-03T15:56:33.317Z,9.10
2022-11-03T15:59:00.406Z,9.10
2022-11-03T16:01:27.475Z,9.10
2022-11-03T16:03:55.837Z,9.10
2022-11-03T16:06:40.240Z,9.20
2022-11-03T16:09:10.409Z,9.20
2022-11-03T16:11:40.073Z,9.20
2022-11-03T16:14:07.278Z,9.20
2022-11-03T16:16:34.410Z,9.20
2022-11-03T16:19:01.512Z,9.20
2022-11-03T16:21:29.055Z,9.30
2022-11-03T16:23:56.176Z,9.20
2022-11-03T16:26:24.409Z,9.30
2022-11-03T16:28:51.866Z,9.30
2022-11-03T16:31:18.927Z,9.30
2022-11-03T16:33:49.340Z,9.30
2022-11-03T16:36:16.336Z,9.40
2022-11-03T16:38:43.332Z,9.40
2022-11-03T16:41:10.638Z,9.40
2022-11-03T16:43:37.728Z,9.30
2022-11-03T16:46:04.800Z,9.40
2022-11-03T16:48:31.770Z,9.40
2022-11-03T16:50:58.916Z,9.40
2022-11-03T16:53:26.040Z,9.40
2022-11-03T16:55:53.021Z,9.50
2022-11-03T16:58:20.271Z,9.60
2022-11-03T17:00:48.536Z,9.60
2022-11-03T17:03:16.116Z,9.60
2022-11-03T17:05:43.142Z,9.60
2022-11-03T17:08:38.547Z,9.70
2022-11-03T17:10:57.579Z,9.70
2022-11-03T17:13:24.558Z,9.70
2022-11-03T17:15:52.796Z,9.60
2022-11-03T17:18:19.991Z,9.60
2022-11-03T17:20:47.222Z,9.50
2022-11-03T17:23:14.329Z,9.50
2022-11-03T17:25:41.961Z,9.50
2022-11-03T17:28:15.219Z,9.60
2022-11-03T17:30:42.465Z,9.60
2022-11-03T17:33:15.956Z,9.60
2022-11-03T17:35:46.322Z,9.60
2022-11-03T17:38:16.315Z,9.50
2022-11-03T17:40:46.241Z,9.60
2022-11-03T17:43:23.666Z,9.70
2022-11-03T17:45:51.277Z,9.60
2022-11-03T17:48:18.267Z,9.60
2022-11-03T17:50:53.868Z,9.60
2022-11-03T17:53:30.091Z,9.60
2022-11-03T17:58:49.706Z,9.60
2022-11-03T18:01:28.522Z,9.80
2022-11-03T18:03:55.598Z,9.80
2022-11-03T18:06:24.752Z,9.80
2022-11-03T18:08:51.781Z,9.80
2022-11-03T18:11:45.512Z,9.70
2022-11-03T18:14:13.117Z,9.70
2022-11-03T18:16:40.809Z,9.70
2022-11-03T18:19:16.630Z,9.70
2022-11-03T18:21:44.654Z,9.70
2022-11-03T18:24:14.169Z,9.80
2022-11-03T18:26:41.480Z,9.80
2022-11-03T18:29:09.412Z,9.70
2022-11-03T18:31:42.012Z,9.70
2022-11-03T18:34:15.827Z,9.70
2022-11-03T18:36:45.561Z,9.70
2022-11-03T18:39:25.291Z,9.80
2022-11-03T18:41:52.622Z,9.70
2022-11-03T18:44:30.627Z,9.70
2022-11-03T18:46:58.610Z,9.60
2022-11-03T18:49:27.348Z,9.70
2022-11-03T18:52:10.663Z,9.70
2022-11-03T18:54:47.298Z,9.70
2022-11-03T18:57:22.194Z,9.70
2022-11-03T18:59:53.187Z,9.70
2022-11-03T19:02:22.773Z,9.60
2022-11-03T19:04:50.608Z,9.70
2022-11-03T19:07:28.818Z,9.60
2022-11-03T19:09:55.934Z,9.60
2022-11-03T19:12:23.233Z,9.60
2022-11-03T19:14:50.714Z,9.50
2022-11-03T19:17:23.382Z,9.60
2022-11-03T19:19:52.176Z,9.60
2022-11-03T19:22:21.573Z,9.60
2022-11-03T19:24:48.943Z,9.60
2022-11-03T19:27:36.830Z,9.60
2022-11-03T19:30:05.455Z,9.60
2022-11-03T19:32:36.915Z,9.60
2022-11-03T19:35:25.017Z,9.60
2022-11-03T19:38:00.974Z,9.60
2022-11-03T19:40:29.245Z,9.60
2022-11-03T19:42:57.170Z,9.60
2022-11-03T19:45:24.430Z,9.70
2022-11-03T19:48:18.666Z,9.70
2022-11-03T19:50:50.623Z,9.70
2022-11-03T19:53:29.245Z,9.70
2022-11-03T19:55:56.991Z,9.80
2022-11-03T19:58:29.230Z,9.80
2022-11-03T20:01:02.847Z,9.80
2022-11-03T20:03:32.883Z,9.80
2022-11-03T20:05:59.967Z,9.90
2022-11-03T20:08:29.905Z,10.00
2022-11-03T20:10:57.186Z,10.00
2022-11-03T20:13:26.964Z,9.90
2022-11-03T20:16:00.622Z,9.90
2022-11-03T20:18:28.407Z,9.90
2022-11-03T20:20:56.267Z,9.90
2022-11-03T20:23:25.585Z,10.00
2022-11-03T20:25:53.280Z,9.90
2022-11-03T20:28:27.626Z,10.00
2022-11-03T20:30:55.653Z,10.00
2022-11-03T20:33:24.863Z,10.00
2022-11-03T20:35:53.858Z,10.00
2022-11-03T20:38:22.917Z,10.00
2022-11-03T20:40:55.792Z,9.90
2022-11-03T20:43:40.711Z,9.90
2022-11-03T20:46:33.059Z,9.90
2022-11-03T20:49:00.433Z,9.90
2022-11-03T20:51:34.131Z,9.80
2022-11-03T20:54:03.703Z,9.80
2022-11-03T20:56:30.607Z,9.80
2022-11-03T20:58:58.488Z,9.80
2022-11-03T21:01:33.488Z,9.80
2022-11-03T21:04:01.924Z,9.80
2022-11-03T21:06:31.619Z,9.80
2022-11-03T21:08:59.308Z,9.80
2022-11-03T21:11:29.829Z,9.70
2022-11-03T21:14:17.523Z,9.70
2022-11-03T21:17:02.967Z,9.70
2022-11-03T21:19:50.249Z,9.70
2022-11-03T21:25:16.370Z,9.70
2022-11-03T21:27:43.589Z,9.70
2022-11-03T21:30:15.357Z,9.70
2022-11-03T21:32:43.061Z,9.60
2022-11-03T21:35:17.500Z,9.60
2022-11-03T21:37:45.880Z,9.70
2022-11-03T21:40:13.320Z,9.60
2022-11-03T21:42:58.638Z,9.70
2022-11-03T21:45:26.064Z,9.60
2022-11-03T21:48:15.021Z,9.60
2022-11-03T21:50:42.980Z,9.60
2022-11-03T21:53:10.999Z,9.60
2022-11-03T21:55:38.607Z,9.70
2022-11-03T21:58:05.810Z,9.60
2022-11-03T22:00:33.380Z,9.60
2022-11-03T22:03:00.977Z,9.50
2022-11-03T22:05:28.252Z,9.60
2022-11-03T22:07:55.653Z,9.60
2022-11-03T22:10:22.651Z,9.60
2022-11-03T22:12:50.044Z,9.60
2022-11-03T22:15:37.324Z,9.60
2022-11-03T22:18:06.263Z,9.60
2022-11-03T22:20:54.586Z,9.60
2022-11-03T22:23:39.945Z,9.50
2022-11-03T22:26:51.221Z,9.50
2022-11-03T22:29:36.826Z,9.50
2022-11-03T22:32:05.092Z,9.50
2022-11-03T22:34:50.846Z,9.40
2022-11-03T22:37:17.756Z,9.40
2022-11-03T22:40:06.173Z,9.50
2022-11-03T22:42:52.077Z,9.40
2022-11-03T22:45:37.903Z,9.40
2022-11-03T22:48:05.615Z,9.40
2022-11-03T22:50:33.315Z,9.40
2022-11-03T22:53:20.692Z,9.50
2022-11-03T22:55:49.558Z,9.50
2022-11-03T22:58:16.856Z,9.40
2022-11-03T23:00:45.405Z,9.50
2022-11-03T23:03:12.326Z,9.50
2022-11-03T23:05:40.725Z,9.40
2022-11-03T23:08:08.001Z,9.40
2022-11-03T23:10:35.114Z,9.50
2022-11-03T23:13:02.090Z,9.50
2022-11-03T23:15:32.170Z,9.50
2022-11-03T23:18:23.847Z,9.50
2022-11-03T23:21:09.168Z,9.40
2022-11-03T23:23:56.676Z,9.40
2022-11-03T23:26:25.681Z,9.30
2022-11-03T23:28:52.649Z,9.40
2022-11-03T23:31:19.631Z,9.40
2022-11-03T23:33:46.809Z,9.40
2022-11-03T23:36:15.951Z,9.30
2022-11-03T23:38:44.264Z,9.40
2022-11-03T23:41:14.174Z,9.40
2022-11-03T23:43:43.608Z,9.50
2022-11-03T23:46:34.508Z,9.50
2022-11-03T23:49:01.405Z,9.50
2022-11-03T23:51:30.077Z,9.50
2022-11-03T23:53:58.315Z,9.50
2022-11-03T23:56:49.318Z,9.60
2022-11-03T23:59:17.471Z,9.60
